sensor_id;sensor_type;location;lat;lon;timestamp;P1;durP1;ratioP1;P2;durP2;ratioP2
25207;SDS011;13153;52.316;21.166;2023-04-25T00:02:20;14.48;;;11.20;;
25207;SDS011;13153;52.316;21.166;2023-04-25T00:04:47;15.95;;;11.45;;
25207;SDS011;13153;52.316;21.166;2023-04-25T00:07:13;17.25;;;11.07;;
25207;SDS011;13153;52.316;21.166;2023-04-25T00:09:39;18.00;;;11.90;;
25207;SDS011;13153;52.316;21.166;2023-04-25T00:12:06;20.73;;;11.55;;
25207;SDS011;13153;52.316;21.166;2023-04-25T00:14:33;15.05;;;11.43;;
25207;SDS011;13153;52.316;21.166;2023-04-25T00:17:00;16.33;;;11.80;;
25207;SDS011;13153;52.316;21.166;2023-04-25T00:19:27;15.98;;;12.02;;
25207;SDS011;13153;52.316;21.166;2023-04-25T00:21:56;15.75;;;11.70;;
25207;SDS011;13153;52.316;21.166;2023-04-25T00:24:22;13.93;;;11.07;;
25207;SDS011;13153;52.316;21.166;2023-04-25T00:26:48;15.32;;;11.85;;
25207;SDS011;13153;52.316;21.166;2023-04-25T00:29:14;16.63;;;11.60;;
25207;SDS011;13153;52.316;21.166;2023-04-25T00:31:40;15.65;;;11.60;;
25207;SDS011;13153;52.316;21.166;2023-04-25T00:34:06;15.95;;;12.32;;
25207;SDS011;13153;52.316;21.166;2023-04-25T00:36:33;16.92;;;12.23;;
25207;SDS011;13153;52.316;21.166;2023-04-25T00:38:59;20.63;;;11.85;;
25207;SDS011;13153;52.316;21.166;2023-04-25T00:41:25;17.48;;;12.35;;
25207;SDS011;13153;52.316;21.166;2023-04-25T00:43:52;14.85;;;12.00;;
25207;SDS011;13153;52.316;21.166;2023-04-25T00:46:20;16.83;;;12.32;;
25207;SDS011;13153;52.316;21.166;2023-04-25T00:48:46;15.15;;;11.95;;
25207;SDS011;13153;52.316;21.166;2023-04-25T00:51:13;18.38;;;12.45;;
25207;SDS011;13153;52.316;21.166;2023-04-25T00:53:46;16.60;;;11.77;;
25207;SDS011;13153;52.316;21.166;2023-04-25T00:56:15;20.55;;;12.93;;
25207;SDS011;13153;52.316;21.166;2023-04-25T00:58:41;19.40;;;13.52;;
25207;SDS011;13153;52.316;21.166;2023-04-25T01:01:09;22.40;;;13.98;;
25207;SDS011;13153;52.316;21.166;2023-04-25T01:03:37;17.98;;;13.50;;
25207;SDS011;13153;52.316;21.166;2023-04-25T01:06:08;16.05;;;12.57;;
25207;SDS011;13153;52.316;21.166;2023-04-25T01:08:36;19.25;;;12.23;;
25207;SDS011;13153;52.316;21.166;2023-04-25T01:11:04;18.83;;;12.93;;
25207;SDS011;13153;52.316;21.166;2023-04-25T01:13:30;21.52;;;13.48;;
25207;SDS011;13153;52.316;21.166;2023-04-25T01:15:58;22.70;;;13.65;;
25207;SDS011;13153;52.316;21.166;2023-04-25T01:18:25;22.95;;;13.52;;
25207;SDS011;13153;52.316;21.166;2023-04-25T01:20:51;22.23;;;13.63;;
25207;SDS011;13153;52.316;21.166;2023-04-25T01:23:18;20.23;;;13.93;;
25207;SDS011;13153;52.316;21.166;2023-04-25T01:25:47;24.65;;;13.82;;
25207;SDS011;13153;52.316;21.166;2023-04-25T01:28:14;21.60;;;13.77;;
25207;SDS011;13153;52.316;21.166;2023-04-25T01:30:41;21.58;;;13.15;;
25207;SDS011;13153;52.316;21.166;2023-04-25T01:33:08;26.52;;;14.05;;
25207;SDS011;13153;52.316;21.166;2023-04-25T01:35:34;23.25;;;14.10;;
25207;SDS011;13153;52.316;21.166;2023-04-25T01:38:00;24.15;;;14.10;;
25207;SDS011;13153;52.316;21.166;2023-04-25T01:40:26;22.08;;;14.38;;
25207;SDS011;13153;52.316;21.166;2023-04-25T01:42:53;22.80;;;13.80;;
25207;SDS011;13153;52.316;21.166;2023-04-25T01:45:19;19.52;;;13.45;;
25207;SDS011;13153;52.316;21.166;2023-04-25T01:47:45;20.70;;;13.73;;
25207;SDS011;13153;52.316;21.166;2023-04-25T01:50:14;18.58;;;13.80;;
25207;SDS011;13153;52.316;21.166;2023-04-25T01:52:43;21.73;;;14.57;;
25207;SDS011;13153;52.316;21.166;2023-04-25T01:55:09;19.55;;;14.27;;
25207;SDS011;13153;52.316;21.166;2023-04-25T01:57:36;28.17;;;15.63;;
25207;SDS011;13153;52.316;21.166;2023-04-25T02:00:03;21.27;;;14.38;;
25207;SDS011;13153;52.316;21.166;2023-04-25T02:02:31;18.80;;;13.95;;
25207;SDS011;13153;52.316;21.166;2023-04-25T02:04:57;21.67;;;14.63;;
25207;SDS011;13153;52.316;21.166;2023-04-25T02:07:23;22.10;;;14.95;;
25207;SDS011;13153;52.316;21.166;2023-04-25T02:09:49;20.48;;;14.75;;
25207;SDS011;13153;52.316;21.166;2023-04-25T02:12:15;30.75;;;20.98;;
25207;SDS011;13153;52.316;21.166;2023-04-25T02:14:41;34.08;;;22.42;;
25207;SDS011;13153;52.316;21.166;2023-04-25T02:17:06;28.13;;;17.08;;
25207;SDS011;13153;52.316;21.166;2023-04-25T02:19:32;32.03;;;20.70;;
25207;SDS011;13153;52.316;21.166;2023-04-25T02:21:58;24.27;;;18.23;;
25207;SDS011;13153;52.316;21.166;2023-04-25T02:24:24;21.30;;;15.60;;
25207;SDS011;13153;52.316;21.166;2023-04-25T02:26:50;22.88;;;15.60;;
25207;SDS011;13153;52.316;21.166;2023-04-25T02:29:16;22.17;;;15.40;;
25207;SDS011;13153;52.316;21.166;2023-04-25T02:31:42;24.10;;;16.05;;
25207;SDS011;13153;52.316;21.166;2023-04-25T02:34:07;21.58;;;15.77;;
25207;SDS011;13153;52.316;21.166;2023-04-25T02:36:33;20.38;;;14.82;;
25207;SDS011;13153;52.316;21.166;2023-04-25T02:39:00;20.38;;;14.63;;
25207;SDS011;13153;52.316;21.166;2023-04-25T02:41:26;19.92;;;14.43;;
25207;SDS011;13153;52.316;21.166;2023-04-25T02:43:52;19.13;;;13.77;;
25207;SDS011;13153;52.316;21.166;2023-04-25T02:46:18;19.02;;;14.50;;
25207;SDS011;13153;52.316;21.166;2023-04-25T02:48:43;18.02;;;14.25;;
25207;SDS011;13153;52.316;21.166;2023-04-25T02:51:09;19.00;;;13.48;;
25207;SDS011;13153;52.316;21.166;2023-04-25T02:53:35;19.38;;;13.85;;
25207;SDS011;13153;52.316;21.166;2023-04-25T02:56:01;19.13;;;13.77;;
25207;SDS011;13153;52.316;21.166;2023-04-25T02:58:27;18.17;;;13.48;;
25207;SDS011;13153;52.316;21.166;2023-04-25T03:00:53;17.40;;;12.70;;
25207;SDS011;13153;52.316;21.166;2023-04-25T03:03:19;22.38;;;13.27;;
25207;SDS011;13153;52.316;21.166;2023-04-25T03:05:47;17.75;;;12.98;;
25207;SDS011;13153;52.316;21.166;2023-04-25T03:08:17;17.58;;;12.77;;
25207;SDS011;13153;52.316;21.166;2023-04-25T03:10:44;17.67;;;13.25;;
25207;SDS011;13153;52.316;21.166;2023-04-25T03:13:10;17.48;;;12.32;;
25207;SDS011;13153;52.316;21.166;2023-04-25T03:15:36;16.58;;;12.20;;
25207;SDS011;13153;52.316;21.166;2023-04-25T03:18:03;18.13;;;12.07;;
25207;SDS011;13153;52.316;21.166;2023-04-25T03:20:29;16.52;;;12.15;;
25207;SDS011;13153;52.316;21.166;2023-04-25T03:22:55;18.52;;;11.90;;
25207;SDS011;13153;52.316;21.166;2023-04-25T03:25:21;18.88;;;11.90;;
25207;SDS011;13153;52.316;21.166;2023-04-25T03:27:47;16.65;;;11.82;;
25207;SDS011;13153;52.316;21.166;2023-04-25T03:30:13;15.43;;;12.00;;
25207;SDS011;13153;52.316;21.166;2023-04-25T03:32:38;16.15;;;10.85;;
25207;SDS011;13153;52.316;21.166;2023-04-25T03:35:04;14.23;;;11.55;;
25207;SDS011;13153;52.316;21.166;2023-04-25T03:37:30;15.50;;;10.88;;
25207;SDS011;13153;52.316;21.166;2023-04-25T03:39:56;16.50;;;11.15;;
25207;SDS011;13153;52.316;21.166;2023-04-25T03:42:22;13.20;;;10.68;;
25207;SDS011;13153;52.316;21.166;2023-04-25T03:44:48;14.20;;;10.55;;
25207;SDS011;13153;52.316;21.166;2023-04-25T03:47:15;15.48;;;11.40;;
25207;SDS011;13153;52.316;21.166;2023-04-25T03:49:41;17.45;;;10.70;;
25207;SDS011;13153;52.316;21.166;2023-04-25T03:52:07;12.10;;;9.52;;
25207;SDS011;13153;52.316;21.166;2023-04-25T03:54:33;12.60;;;9.40;;
25207;SDS011;13153;52.316;21.166;2023-04-25T03:56:59;15.20;;;9.30;;
25207;SDS011;13153;52.316;21.166;2023-04-25T03:59:24;14.25;;;9.65;;
25207;SDS011;13153;52.316;21.166;2023-04-25T04:01:51;13.15;;;9.68;;
25207;SDS011;13153;52.316;21.166;2023-04-25T04:04:17;14.25;;;10.75;;
25207;SDS011;13153;52.316;21.166;2023-04-25T04:06:43;18.00;;;11.18;;
25207;SDS011;13153;52.316;21.166;2023-04-25T04:09:09;14.55;;;10.30;;
25207;SDS011;13153;52.316;21.166;2023-04-25T04:11:36;12.50;;;9.63;;
25207;SDS011;13153;52.316;21.166;2023-04-25T04:14:04;13.50;;;9.75;;
25207;SDS011;13153;52.316;21.166;2023-04-25T04:16:31;12.90;;;9.45;;
25207;SDS011;13153;52.316;21.166;2023-04-25T04:18:57;14.30;;;9.02;;
25207;SDS011;13153;52.316;21.166;2023-04-25T04:21:23;15.60;;;9.32;;
25207;SDS011;13153;52.316;21.166;2023-04-25T04:23:49;14.05;;;9.98;;
25207;SDS011;13153;52.316;21.166;2023-04-25T04:26:15;14.15;;;10.00;;
25207;SDS011;13153;52.316;21.166;2023-04-25T04:28:43;15.35;;;10.15;;
25207;SDS011;13153;52.316;21.166;2023-04-25T04:31:12;18.15;;;10.52;;
25207;SDS011;13153;52.316;21.166;2023-04-25T04:33:40;18.27;;;10.50;;
25207;SDS011;13153;52.316;21.166;2023-04-25T04:36:06;16.27;;;10.18;;
25207;SDS011;13153;52.316;21.166;2023-04-25T04:38:32;15.75;;;9.15;;
25207;SDS011;13153;52.316;21.166;2023-04-25T04:40:58;14.30;;;9.00;;
25207;SDS011;13153;52.316;21.166;2023-04-25T04:43:24;12.18;;;8.65;;
25207;SDS011;13153;52.316;21.166;2023-04-25T04:45:50;12.52;;;8.93;;
25207;SDS011;13153;52.316;21.166;2023-04-25T04:48:16;65.55;;;13.32;;
25207;SDS011;13153;52.316;21.166;2023-04-25T04:50:45;21.73;;;9.25;;
25207;SDS011;13153;52.316;21.166;2023-04-25T04:53:11;15.20;;;9.00;;
25207;SDS011;13153;52.316;21.166;2023-04-25T04:55:36;12.18;;;8.02;;
25207;SDS011;13153;52.316;21.166;2023-04-25T04:58:02;14.25;;;8.65;;
25207;SDS011;13153;52.316;21.166;2023-04-25T05:00:28;15.05;;;8.90;;
25207;SDS011;13153;52.316;21.166;2023-04-25T05:02:55;11.40;;;8.50;;
25207;SDS011;13153;52.316;21.166;2023-04-25T05:05:21;10.57;;;8.40;;
25207;SDS011;13153;52.316;21.166;2023-04-25T05:07:47;11.82;;;8.35;;
25207;SDS011;13153;52.316;21.166;2023-04-25T05:10:13;11.45;;;8.43;;
25207;SDS011;13153;52.316;21.166;2023-04-25T05:12:39;14.07;;;9.63;;
25207;SDS011;13153;52.316;21.166;2023-04-25T05:15:05;13.65;;;8.15;;
25207;SDS011;13153;52.316;21.166;2023-04-25T05:17:31;11.85;;;8.98;;
25207;SDS011;13153;52.316;21.166;2023-04-25T05:19:57;13.18;;;8.85;;
25207;SDS011;13153;52.316;21.166;2023-04-25T05:22:24;12.88;;;9.43;;
25207;SDS011;13153;52.316;21.166;2023-04-25T05:24:49;16.50;;;9.25;;
25207;SDS011;13153;52.316;21.166;2023-04-25T05:27:16;11.93;;;8.20;;
25207;SDS011;13153;52.316;21.166;2023-04-25T05:29:43;13.50;;;8.95;;
25207;SDS011;13153;52.316;21.166;2023-04-25T05:32:09;12.13;;;8.90;;
25207;SDS011;13153;52.316;21.166;2023-04-25T05:34:36;13.20;;;9.00;;
25207;SDS011;13153;52.316;21.166;2023-04-25T05:37:01;12.13;;;8.65;;
25207;SDS011;13153;52.316;21.166;2023-04-25T05:39:28;14.70;;;8.82;;
25207;SDS011;13153;52.316;21.166;2023-04-25T05:41:54;10.65;;;8.43;;
25207;SDS011;13153;52.316;21.166;2023-04-25T05:44:20;11.85;;;8.32;;
25207;SDS011;13153;52.316;21.166;2023-04-25T05:46:46;11.82;;;8.43;;
25207;SDS011;13153;52.316;21.166;2023-04-25T05:49:12;9.93;;;8.40;;
25207;SDS011;13153;52.316;21.166;2023-04-25T05:51:38;12.82;;;9.30;;
25207;SDS011;13153;52.316;21.166;2023-04-25T05:54:04;10.00;;;8.43;;
25207;SDS011;13153;52.316;21.166;2023-04-25T05:56:30;19.13;;;8.80;;
25207;SDS011;13153;52.316;21.166;2023-04-25T05:58:55;14.85;;;8.20;;
25207;SDS011;13153;52.316;21.166;2023-04-25T06:01:22;10.98;;;7.95;;
25207;SDS011;13153;52.316;21.166;2023-04-25T06:03:48;12.95;;;8.15;;
25207;SDS011;13153;52.316;21.166;2023-04-25T06:06:14;12.93;;;8.50;;
25207;SDS011;13153;52.316;21.166;2023-04-25T06:08:40;12.48;;;8.20;;
25207;SDS011;13153;52.316;21.166;2023-04-25T06:11:06;9.52;;;7.68;;
25207;SDS011;13153;52.316;21.166;2023-04-25T06:13:32;8.95;;;7.25;;
25207;SDS011;13153;52.316;21.166;2023-04-25T06:15:58;9.85;;;7.30;;
25207;SDS011;13153;52.316;21.166;2023-04-25T06:18:24;10.57;;;7.25;;
25207;SDS011;13153;52.316;21.166;2023-04-25T06:20:50;11.63;;;7.35;;
25207;SDS011;13153;52.316;21.166;2023-04-25T06:23:15;8.32;;;6.97;;
25207;SDS011;13153;52.316;21.166;2023-04-25T06:25:41;11.88;;;7.35;;
25207;SDS011;13153;52.316;21.166;2023-04-25T06:28:07;9.85;;;7.20;;
25207;SDS011;13153;52.316;21.166;2023-04-25T06:30:33;8.93;;;7.28;;
25207;SDS011;13153;52.316;21.166;2023-04-25T06:32:58;10.50;;;7.20;;
25207;SDS011;13153;52.316;21.166;2023-04-25T06:35:24;9.30;;;7.53;;
25207;SDS011;13153;52.316;21.166;2023-04-25T06:37:51;9.00;;;7.65;;
25207;SDS011;13153;52.316;21.166;2023-04-25T06:40:16;14.52;;;8.35;;
25207;SDS011;13153;52.316;21.166;2023-04-25T06:42:42;15.27;;;7.88;;
25207;SDS011;13153;52.316;21.166;2023-04-25T06:45:08;11.20;;;7.22;;
25207;SDS011;13153;52.316;21.166;2023-04-25T06:47:34;9.00;;;7.70;;
25207;SDS011;13153;52.316;21.166;2023-04-25T06:50:00;11.00;;;8.23;;
25207;SDS011;13153;52.316;21.166;2023-04-25T06:52:26;10.13;;;8.45;;
25207;SDS011;13153;52.316;21.166;2023-04-25T06:54:52;11.48;;;8.73;;
25207;SDS011;13153;52.316;21.166;2023-04-25T06:57:18;13.00;;;9.48;;
25207;SDS011;13153;52.316;21.166;2023-04-25T06:59:43;11.40;;;8.55;;
25207;SDS011;13153;52.316;21.166;2023-04-25T07:02:09;12.77;;;9.30;;
25207;SDS011;13153;52.316;21.166;2023-04-25T07:04:35;16.40;;;9.52;;
25207;SDS011;13153;52.316;21.166;2023-04-25T07:07:01;15.85;;;10.10;;
25207;SDS011;13153;52.316;21.166;2023-04-25T07:09:28;13.80;;;8.95;;
25207;SDS011;13153;52.316;21.166;2023-04-25T07:11:55;14.13;;;9.13;;
25207;SDS011;13153;52.316;21.166;2023-04-25T07:14:21;11.02;;;9.00;;
25207;SDS011;13153;52.316;21.166;2023-04-25T07:16:47;10.10;;;8.05;;
25207;SDS011;13153;52.316;21.166;2023-04-25T07:19:13;14.32;;;9.90;;
25207;SDS011;13153;52.316;21.166;2023-04-25T07:21:39;11.68;;;9.02;;
25207;SDS011;13153;52.316;21.166;2023-04-25T07:24:05;11.68;;;8.40;;
25207;SDS011;13153;52.316;21.166;2023-04-25T07:26:31;10.07;;;8.75;;
25207;SDS011;13153;52.316;21.166;2023-04-25T07:28:57;11.43;;;8.60;;
25207;SDS011;13153;52.316;21.166;2023-04-25T07:31:22;13.02;;;9.05;;
25207;SDS011;13153;52.316;21.166;2023-04-25T07:33:48;11.00;;;8.50;;
25207;SDS011;13153;52.316;21.166;2023-04-25T07:36:14;11.07;;;8.32;;
25207;SDS011;13153;52.316;21.166;2023-04-25T07:38:40;9.43;;;8.43;;
25207;SDS011;13153;52.316;21.166;2023-04-25T07:41:06;11.80;;;8.32;;
25207;SDS011;13153;52.316;21.166;2023-04-25T07:43:32;10.00;;;8.30;;
25207;SDS011;13153;52.316;21.166;2023-04-25T07:45:58;9.65;;;8.50;;
25207;SDS011;13153;52.316;21.166;2023-04-25T07:48:24;10.70;;;8.52;;
25207;SDS011;13153;52.316;21.166;2023-04-25T07:50:50;11.98;;;8.50;;
25207;SDS011;13153;52.316;21.166;2023-04-25T07:53:16;13.07;;;8.20;;
25207;SDS011;13153;52.316;21.166;2023-04-25T07:55:43;12.45;;;8.13;;
25207;SDS011;13153;52.316;21.166;2023-04-25T07:58:09;8.90;;;8.00;;
25207;SDS011;13153;52.316;21.166;2023-04-25T08:00:36;9.27;;;7.40;;
25207;SDS011;13153;52.316;21.166;2023-04-25T08:03:02;8.27;;;7.35;;
25207;SDS011;13153;52.316;21.166;2023-04-25T08:05:28;16.65;;;7.28;;
25207;SDS011;13153;52.316;21.166;2023-04-25T08:07:54;18.95;;;7.68;;
25207;SDS011;13153;52.316;21.166;2023-04-25T08:10:22;9.55;;;6.63;;
25207;SDS011;13153;52.316;21.166;2023-04-25T08:12:48;11.13;;;8.05;;
25207;SDS011;13153;52.316;21.166;2023-04-25T08:15:14;10.18;;;7.18;;
25207;SDS011;13153;52.316;21.166;2023-04-25T08:17:40;10.27;;;6.80;;
25207;SDS011;13153;52.316;21.166;2023-04-25T08:20:06;13.60;;;6.70;;
25207;SDS011;13153;52.316;21.166;2023-04-25T08:22:32;15.40;;;6.78;;
25207;SDS011;13153;52.316;21.166;2023-04-25T08:24:59;10.18;;;6.70;;
25207;SDS011;13153;52.316;21.166;2023-04-25T08:27:24;6.55;;;5.78;;
25207;SDS011;13153;52.316;21.166;2023-04-25T08:29:50;7.35;;;5.90;;
25207;SDS011;13153;52.316;21.166;2023-04-25T08:32:16;6.50;;;5.38;;
25207;SDS011;13153;52.316;21.166;2023-04-25T08:34:43;6.45;;;5.28;;
25207;SDS011;13153;52.316;21.166;2023-04-25T08:37:09;7.28;;;5.28;;
25207;SDS011;13153;52.316;21.166;2023-04-25T08:39:35;8.73;;;6.15;;
25207;SDS011;13153;52.316;21.166;2023-04-25T08:42:05;6.32;;;5.72;;
25207;SDS011;13153;52.316;21.166;2023-04-25T08:44:35;5.82;;;5.18;;
25207;SDS011;13153;52.316;21.166;2023-04-25T08:47:04;6.38;;;5.47;;
25207;SDS011;13153;52.316;21.166;2023-04-25T08:49:34;6.10;;;5.38;;
25207;SDS011;13153;52.316;21.166;2023-04-25T08:52:02;6.90;;;6.10;;
25207;SDS011;13153;52.316;21.166;2023-04-25T08:54:31;6.15;;;5.45;;
25207;SDS011;13153;52.316;21.166;2023-04-25T08:57:00;7.18;;;6.28;;
25207;SDS011;13153;52.316;21.166;2023-04-25T08:59:29;6.70;;;5.70;;
25207;SDS011;13153;52.316;21.166;2023-04-25T09:01:56;8.50;;;6.28;;
25207;SDS011;13153;52.316;21.166;2023-04-25T09:04:22;8.10;;;6.30;;
25207;SDS011;13153;52.316;21.166;2023-04-25T09:06:48;8.25;;;6.60;;
25207;SDS011;13153;52.316;21.166;2023-04-25T09:09:14;12.05;;;6.80;;
25207;SDS011;13153;52.316;21.166;2023-04-25T09:11:40;9.50;;;7.15;;
25207;SDS011;13153;52.316;21.166;2023-04-25T09:14:13;7.47;;;6.65;;
25207;SDS011;13153;52.316;21.166;2023-04-25T09:19:38;6.10;;;5.50;;
25207;SDS011;13153;52.316;21.166;2023-04-25T09:22:05;6.55;;;5.82;;
25207;SDS011;13153;52.316;21.166;2023-04-25T09:24:36;6.45;;;5.75;;
25207;SDS011;13153;52.316;21.166;2023-04-25T09:27:09;7.25;;;6.30;;
25207;SDS011;13153;52.316;21.166;2023-04-25T09:29:37;6.75;;;5.80;;
25207;SDS011;13153;52.316;21.166;2023-04-25T09:32:16;6.10;;;5.50;;
25207;SDS011;13153;52.316;21.166;2023-04-25T09:37:18;6.55;;;5.80;;
25207;SDS011;13153;52.316;21.166;2023-04-25T09:39:46;6.63;;;6.03;;
25207;SDS011;13153;52.316;21.166;2023-04-25T09:42:15;7.25;;;6.10;;
25207;SDS011;13153;52.316;21.166;2023-04-25T09:44:44;7.72;;;6.70;;
25207;SDS011;13153;52.316;21.166;2023-04-25T09:47:15;7.50;;;6.70;;
25207;SDS011;13153;52.316;21.166;2023-04-25T09:49:46;9.30;;;6.75;;
25207;SDS011;13153;52.316;21.166;2023-04-25T09:52:17;8.27;;;7.05;;
25207;SDS011;13153;52.316;21.166;2023-04-25T09:54:46;9.23;;;6.50;;
25207;SDS011;13153;52.316;21.166;2023-04-25T09:57:14;9.02;;;7.15;;
25207;SDS011;13153;52.316;21.166;2023-04-25T09:59:52;7.70;;;6.97;;
25207;SDS011;13153;52.316;21.166;2023-04-25T10:02:24;10.07;;;7.82;;
25207;SDS011;13153;52.316;21.166;2023-04-25T10:04:53;9.70;;;7.32;;
25207;SDS011;13153;52.316;21.166;2023-04-25T10:07:20;8.73;;;7.60;;
25207;SDS011;13153;52.316;21.166;2023-04-25T10:09:54;8.43;;;7.45;;
25207;SDS011;13153;52.316;21.166;2023-04-25T10:12:30;8.60;;;7.78;;
25207;SDS011;13153;52.316;21.166;2023-04-25T10:14:58;10.40;;;7.55;;
25207;SDS011;13153;52.316;21.166;2023-04-25T10:17:28;8.77;;;7.88;;
25207;SDS011;13153;52.316;21.166;2023-04-25T10:19:56;9.25;;;8.13;;
25207;SDS011;13153;52.316;21.166;2023-04-25T10:25:07;9.60;;;7.38;;
25207;SDS011;13153;52.316;21.166;2023-04-25T10:27:34;8.68;;;6.90;;
25207;SDS011;13153;52.316;21.166;2023-04-25T10:32:36;8.27;;;7.47;;
25207;SDS011;13153;52.316;21.166;2023-04-25T10:35:18;10.40;;;7.25;;
25207;SDS011;13153;52.316;21.166;2023-04-25T10:38:03;9.65;;;7.00;;
25207;SDS011;13153;52.316;21.166;2023-04-25T10:40:38;8.82;;;6.80;;
25207;SDS011;13153;52.316;21.166;2023-04-25T10:45:55;14.63;;;9.70;;
25207;SDS011;13153;52.316;21.166;2023-04-25T10:48:25;7.47;;;6.68;;
25207;SDS011;13153;52.316;21.166;2023-04-25T10:51:09;9.07;;;7.13;;
25207;SDS011;13153;52.316;21.166;2023-04-25T10:53:37;8.38;;;7.05;;
25207;SDS011;13153;52.316;21.166;2023-04-25T10:58:50;12.23;;;7.43;;
25207;SDS011;13153;52.316;21.166;2023-04-25T11:01:20;9.80;;;7.72;;
25207;SDS011;13153;52.316;21.166;2023-04-25T11:03:49;9.65;;;8.60;;
25207;SDS011;13153;52.316;21.166;2023-04-25T11:09:27;11.05;;;9.32;;
25207;SDS011;13153;52.316;21.166;2023-04-25T11:11:54;12.13;;;9.40;;
25207;SDS011;13153;52.316;21.166;2023-04-25T11:14:21;32.42;;;10.75;;
25207;SDS011;13153;52.316;21.166;2023-04-25T11:16:52;15.05;;;9.60;;
25207;SDS011;13153;52.316;21.166;2023-04-25T11:19:20;15.43;;;9.43;;
25207;SDS011;13153;52.316;21.166;2023-04-25T11:21:47;11.52;;;8.80;;
25207;SDS011;13153;52.316;21.166;2023-04-25T11:24:13;9.27;;;8.32;;
25207;SDS011;13153;52.316;21.166;2023-04-25T11:26:41;9.48;;;8.48;;
25207;SDS011;13153;52.316;21.166;2023-04-25T11:29:08;12.70;;;7.82;;
25207;SDS011;13153;52.316;21.166;2023-04-25T11:31:34;10.35;;;7.80;;
25207;SDS011;13153;52.316;21.166;2023-04-25T11:34:00;10.30;;;7.03;;
25207;SDS011;13153;52.316;21.166;2023-04-25T11:36:26;8.90;;;7.00;;
25207;SDS011;13153;52.316;21.166;2023-04-25T11:38:52;8.05;;;6.10;;
25207;SDS011;13153;52.316;21.166;2023-04-25T11:41:21;7.60;;;5.65;;
25207;SDS011;13153;52.316;21.166;2023-04-25T11:43:47;10.30;;;5.80;;
25207;SDS011;13153;52.316;21.166;2023-04-25T11:46:15;12.43;;;5.63;;
25207;SDS011;13153;52.316;21.166;2023-04-25T11:48:41;8.80;;;5.00;;
25207;SDS011;13153;52.316;21.166;2023-04-25T11:51:08;8.30;;;5.75;;
25207;SDS011;13153;52.316;21.166;2023-04-25T11:53:34;7.53;;;4.65;;
25207;SDS011;13153;52.316;21.166;2023-04-25T11:56:00;5.10;;;4.40;;
25207;SDS011;13153;52.316;21.166;2023-04-25T11:58:53;6.43;;;4.20;;
25207;SDS011;13153;52.316;21.166;2023-04-25T12:04:13;7.35;;;4.18;;
25207;SDS011;13153;52.316;21.166;2023-04-25T12:06:40;4.85;;;4.10;;
25207;SDS011;13153;52.316;21.166;2023-04-25T12:09:09;11.20;;;4.15;;
25207;SDS011;13153;52.316;21.166;2023-04-25T12:11:41;8.45;;;4.00;;
25207;SDS011;13153;52.316;21.166;2023-04-25T12:14:12;4.43;;;3.27;;
25207;SDS011;13153;52.316;21.166;2023-04-25T12:16:58;7.32;;;3.80;;
25207;SDS011;13153;52.316;21.166;2023-04-25T12:19:29;5.95;;;3.80;;
25207;SDS011;13153;52.316;21.166;2023-04-25T12:22:00;7.70;;;3.42;;
25207;SDS011;13153;52.316;21.166;2023-04-25T12:24:32;4.15;;;3.33;;
25207;SDS011;13153;52.316;21.166;2023-04-25T12:27:00;4.78;;;3.47;;
25207;SDS011;13153;52.316;21.166;2023-04-25T12:29:29;6.80;;;3.60;;
25207;SDS011;13153;52.316;21.166;2023-04-25T12:31:57;4.70;;;3.30;;
25207;SDS011;13153;52.316;21.166;2023-04-25T12:34:24;4.18;;;3.58;;
25207;SDS011;13153;52.316;21.166;2023-04-25T12:36:51;4.43;;;3.70;;
25207;SDS011;13153;52.316;21.166;2023-04-25T12:39:21;9.38;;;4.38;;
25207;SDS011;13153;52.316;21.166;2023-04-25T12:41:50;7.45;;;4.10;;
25207;SDS011;13153;52.316;21.166;2023-04-25T12:44:20;5.43;;;3.58;;
25207;SDS011;13153;52.316;21.166;2023-04-25T12:46:46;4.25;;;3.28;;
25207;SDS011;13153;52.316;21.166;2023-04-25T12:49:13;5.22;;;3.83;;
25207;SDS011;13153;52.316;21.166;2023-04-25T12:51:39;7.35;;;3.35;;
25207;SDS011;13153;52.316;21.166;2023-04-25T12:54:07;10.20;;;4.28;;
25207;SDS011;13153;52.316;21.166;2023-04-25T12:56:33;7.30;;;3.67;;
25207;SDS011;13153;52.316;21.166;2023-04-25T12:59:00;7.97;;;3.80;;
25207;SDS011;13153;52.316;21.166;2023-04-25T13:01:28;4.57;;;3.45;;
25207;SDS011;13153;52.316;21.166;2023-04-25T13:03:54;8.95;;;4.18;;
25207;SDS011;13153;52.316;21.166;2023-04-25T13:06:20;10.07;;;4.20;;
25207;SDS011;13153;52.316;21.166;2023-04-25T13:08:47;5.80;;;3.42;;
25207;SDS011;13153;52.316;21.166;2023-04-25T13:11:13;8.45;;;3.90;;
25207;SDS011;13153;52.316;21.166;2023-04-25T13:13:43;4.45;;;3.60;;
25207;SDS011;13153;52.316;21.166;2023-04-25T13:16:09;12.73;;;4.97;;
25207;SDS011;13153;52.316;21.166;2023-04-25T13:18:36;9.85;;;4.95;;
25207;SDS011;13153;52.316;21.166;2023-04-25T13:21:02;5.55;;;3.70;;
25207;SDS011;13153;52.316;21.166;2023-04-25T13:23:28;9.18;;;3.75;;
25207;SDS011;13153;52.316;21.166;2023-04-25T13:25:55;11.70;;;3.83;;
25207;SDS011;13153;52.316;21.166;2023-04-25T13:28:26;5.95;;;3.13;;
25207;SDS011;13153;52.316;21.166;2023-04-25T13:30:53;9.55;;;3.65;;
25207;SDS011;13153;52.316;21.166;2023-04-25T13:33:19;4.60;;;2.83;;
25207;SDS011;13153;52.316;21.166;2023-04-25T13:35:46;7.30;;;3.00;;
25207;SDS011;13153;52.316;21.166;2023-04-25T13:38:23;5.65;;;2.90;;
25207;SDS011;13153;52.316;21.166;2023-04-25T13:40:50;7.28;;;3.20;;
25207;SDS011;13153;52.316;21.166;2023-04-25T13:43:18;5.55;;;3.40;;
25207;SDS011;13153;52.316;21.166;2023-04-25T13:45:46;5.88;;;2.92;;
25207;SDS011;13153;52.316;21.166;2023-04-25T13:48:13;5.22;;;3.03;;
25207;SDS011;13153;52.316;21.166;2023-04-25T13:50:39;5.35;;;3.17;;
25207;SDS011;13153;52.316;21.166;2023-04-25T13:53:05;6.97;;;3.88;;
25207;SDS011;13153;52.316;21.166;2023-04-25T13:55:30;11.07;;;3.42;;
25207;SDS011;13153;52.316;21.166;2023-04-25T13:57:56;4.03;;;2.67;;
25207;SDS011;13153;52.316;21.166;2023-04-25T14:00:22;3.10;;;2.80;;
25207;SDS011;13153;52.316;21.166;2023-04-25T14:02:48;6.28;;;3.10;;
25207;SDS011;13153;52.316;21.166;2023-04-25T14:05:14;5.13;;;2.90;;
25207;SDS011;13153;52.316;21.166;2023-04-25T14:07:40;4.05;;;2.70;;
25207;SDS011;13153;52.316;21.166;2023-04-25T14:10:06;4.15;;;2.90;;
25207;SDS011;13153;52.316;21.166;2023-04-25T14:12:32;5.25;;;3.30;;
25207;SDS011;13153;52.316;21.166;2023-04-25T14:14:58;5.28;;;3.83;;
25207;SDS011;13153;52.316;21.166;2023-04-25T14:17:25;5.55;;;4.10;;
25207;SDS011;13153;52.316;21.166;2023-04-25T14:19:50;5.47;;;3.55;;
25207;SDS011;13153;52.316;21.166;2023-04-25T14:22:16;4.47;;;3.20;;
25207;SDS011;13153;52.316;21.166;2023-04-25T14:24:42;5.72;;;3.17;;
25207;SDS011;13153;52.316;21.166;2023-04-25T14:27:08;5.57;;;3.28;;
25207;SDS011;13153;52.316;21.166;2023-04-25T14:29:34;3.20;;;2.83;;
25207;SDS011;13153;52.316;21.166;2023-04-25T14:32:00;4.22;;;2.88;;
25207;SDS011;13153;52.316;21.166;2023-04-25T14:34:27;3.85;;;3.30;;
25207;SDS011;13153;52.316;21.166;2023-04-25T14:36:53;8.23;;;3.10;;
25207;SDS011;13153;52.316;21.166;2023-04-25T14:39:18;4.90;;;3.40;;
25207;SDS011;13153;52.316;21.166;2023-04-25T14:41:45;4.55;;;3.45;;
25207;SDS011;13153;52.316;21.166;2023-04-25T14:44:10;6.25;;;3.55;;
25207;SDS011;13153;52.316;21.166;2023-04-25T14:46:36;4.97;;;3.53;;